createdAt,value
2023-05-06T00:00:56.533Z,84.22
2023-05-06T00:03:23.091Z,84.39
2023-05-06T00:05:49.631Z,84.34
2023-05-06T00:08:16.424Z,84.38
2023-05-06T00:10:42.949Z,84.49
2023-05-06T00:13:09.405Z,84.58
2023-05-06T00:15:36.550Z,84.51
2023-05-06T00:18:03.165Z,84.44
2023-05-06T00:20:29.733Z,84.54
2023-05-06T00:22:56.184Z,84.41
2023-05-06T00:25:22.658Z,84.65
2023-05-06T00:27:49.207Z,84.67
2023-05-06T00:30:15.656Z,84.57
2023-05-06T00:32:42.441Z,84.73
2023-05-06T00:35:10.657Z,84.88
2023-05-06T00:37:37.274Z,84.84
2023-05-06T00:40:04.089Z,84.73
2023-05-06T00:42:30.815Z,84.86
2023-05-06T00:44:57.384Z,84.79
2023-05-06T00:47:24.789Z,84.86
2023-05-06T00:49:51.684Z,85.01
2023-05-06T00:52:20.061Z,84.90
2023-05-06T00:54:46.607Z,85.09
2023-05-06T00:57:13.646Z,84.96
2023-05-06T00:59:40.413Z,85.22
2023-05-06T01:02:07.005Z,84.95
2023-05-06T01:04:33.747Z,85.10
2023-05-06T01:07:18.118Z,85.30
2023-05-06T01:09:49.753Z,85.29
2023-05-06T01:12:24.159Z,85.28
2023-05-06T01:15:16.580Z,85.14
2023-05-06T01:17:45.989Z,85.10
2023-05-06T01:20:13.322Z,85.07
2023-05-06T01:22:39.952Z,85.09
2023-05-06T01:25:07.192Z,85.19
2023-05-06T01:27:33.809Z,85.11
2023-05-06T01:30:01.838Z,85.18
2023-05-06T01:32:53.034Z,85.13
2023-05-06T01:36:00.507Z,85.16
2023-05-06T01:38:37.356Z,85.38
2023-05-06T01:41:04.149Z,85.49
2023-05-06T01:43:40.398Z,85.15
2023-05-06T01:46:09.303Z,85.15
2023-05-06T01:48:37.910Z,85.40
2023-05-06T01:51:04.655Z,85.37
2023-05-06T01:53:33.073Z,85.21
2023-05-06T01:55:59.600Z,85.24
2023-05-06T01:58:26.190Z,85.12
2023-05-06T02:00:52.756Z,85.06
2023-05-06T02:03:19.366Z,85.05
2023-05-06T02:05:46.366Z,85.03
2023-05-06T02:08:13.159Z,85.26
2023-05-06T02:10:39.668Z,85.06
2023-05-06T02:13:06.372Z,85.01
2023-05-06T02:15:32.887Z,85.06
2023-05-06T02:17:59.979Z,85.05
2023-05-06T02:20:26.681Z,85.25
2023-05-06T02:22:53.229Z,85.01
2023-05-06T02:25:19.791Z,84.95
2023-05-06T02:27:46.275Z,85.04
2023-05-06T02:30:13.063Z,84.99
2023-05-06T02:32:39.630Z,85.19
2023-05-06T02:35:07.152Z,85.04
2023-05-06T02:37:36.088Z,85.20
2023-05-06T02:40:02.645Z,85.24
2023-05-06T02:42:29.224Z,85.17
2023-05-06T02:44:55.785Z,85.05
2023-05-06T02:47:22.403Z,85.04
2023-05-06T02:49:48.946Z,85.08
2023-05-06T02:52:15.513Z,84.97
2023-05-06T02:54:42.018Z,85.06
2023-05-06T02:57:08.570Z,85.07
2023-05-06T02:59:35.887Z,85.08
2023-05-06T03:02:02.522Z,85.33
2023-05-06T03:04:29.143Z,84.92
2023-05-06T03:06:55.700Z,85.24
2023-05-06T03:09:22.264Z,85.14
2023-05-06T03:11:49.247Z,85.16
2023-05-06T03:14:16.029Z,85.08
2023-05-06T03:16:42.668Z,85.13
2023-05-06T03:19:09.238Z,85.05
2023-05-06T03:21:35.748Z,85.11
2023-05-06T03:24:02.226Z,85.26
2023-05-06T03:26:28.746Z,85.04
2023-05-06T03:28:55.354Z,85.17
2023-05-06T03:31:22.125Z,85.32
2023-05-06T03:33:48.765Z,85.11
2023-05-06T03:36:15.391Z,85.21
2023-05-06T03:38:41.920Z,85.35
2023-05-06T03:41:08.548Z,85.11
2023-05-06T03:43:35.144Z,85.38
2023-05-06T03:46:01.731Z,85.31
2023-05-06T03:48:28.469Z,85.46
2023-05-06T03:50:55.157Z,85.31
2023-05-06T03:53:21.815Z,85.23
2023-05-06T03:55:48.343Z,85.24
2023-05-06T03:58:14.915Z,85.39
2023-05-06T04:00:41.568Z,85.39
2023-05-06T04:03:08.203Z,85.53
2023-05-06T04:05:34.794Z,85.64
2023-05-06T04:08:01.786Z,85.41
2023-05-06T04:10:28.673Z,85.76
2023-05-06T04:12:55.359Z,85.89
2023-05-06T04:15:23.003Z,85.54
2023-05-06T04:17:49.601Z,85.88
2023-05-06T04:20:16.201Z,85.77
2023-05-06T04:22:42.644Z,85.56
2023-05-06T04:25:09.959Z,85.68
2023-05-06T04:27:36.550Z,85.89
2023-05-06T04:30:03.265Z,86.03
2023-05-06T04:32:29.857Z,85.95
2023-05-06T04:34:57.171Z,86.00
2023-05-06T04:37:23.985Z,86.07
2023-05-06T04:39:50.642Z,86.21
2023-05-06T04:42:17.502Z,86.00
2023-05-06T04:44:44.174Z,85.81
2023-05-06T04:47:10.749Z,86.08
2023-05-06T04:49:37.258Z,85.84
2023-05-06T04:52:04.165Z,85.85
2023-05-06T04:54:30.820Z,85.72
2023-05-06T04:56:57.340Z,85.71
2023-05-06T04:59:23.961Z,85.62
2023-05-06T05:01:50.613Z,85.30
2023-05-06T05:04:17.224Z,85.20
2023-05-06T05:06:43.893Z,84.86
2023-05-06T05:09:10.704Z,84.94
2023-05-06T05:11:38.484Z,84.80
2023-05-06T05:14:05.132Z,85.11
2023-05-06T05:16:31.811Z,84.23
2023-05-06T05:18:58.777Z,84.20
2023-05-06T05:21:26.829Z,84.26
2023-05-06T05:23:53.263Z,84.17
2023-05-06T05:26:19.660Z,84.04
2023-05-06T05:28:46.153Z,83.84
2023-05-06T05:31:12.854Z,83.45
2023-05-06T05:33:39.652Z,83.73
2023-05-06T05:36:06.600Z,83.89
2023-05-06T05:38:33.053Z,83.67
2023-05-06T05:40:59.664Z,83.40
2023-05-06T05:43:26.940Z,83.15
2023-05-06T05:45:53.494Z,82.65
2023-05-06T05:48:19.916Z,82.44
2023-05-06T05:50:46.585Z,82.60
2023-05-06T05:53:13.020Z,82.37
2023-05-06T05:55:39.504Z,82.13
2023-05-06T05:58:05.952Z,82.15
2023-05-06T06:00:32.736Z,82.10
2023-05-06T06:02:59.316Z,81.85
2023-05-06T06:05:25.887Z,81.38
2023-05-06T06:07:52.451Z,81.56
2023-05-06T06:10:19.146Z,81.19
2023-05-06T06:12:45.633Z,80.99
2023-05-06T06:15:12.238Z,80.51
2023-05-06T06:17:38.928Z,80.37
2023-05-06T06:20:06.314Z,80.36
2023-05-06T06:22:32.714Z,80.78
2023-05-06T06:24:59.387Z,80.96
2023-05-06T06:27:25.821Z,81.03
2023-05-06T06:29:52.349Z,81.35
2023-05-06T06:32:19.658Z,81.38
2023-05-06T06:34:46.184Z,81.32
2023-05-06T06:37:12.812Z,80.60
2023-05-06T06:39:39.259Z,80.29
2023-05-06T06:42:06.918Z,80.08
2023-05-06T06:44:34.257Z,79.98
2023-05-06T06:47:00.793Z,80.00
2023-05-06T06:49:27.470Z,79.74
2023-05-06T06:51:54.272Z,80.23
2023-05-06T06:54:20.896Z,80.20
2023-05-06T06:56:47.400Z,79.91
2023-05-06T06:59:14.175Z,79.79
2023-05-06T07:01:41.943Z,79.93
2023-05-06T07:04:08.481Z,79.48
2023-05-06T07:06:34.905Z,78.75
2023-05-06T07:09:01.281Z,78.69
2023-05-06T07:11:27.714Z,78.96
2023-05-06T07:13:54.132Z,79.21
2023-05-06T07:16:21.777Z,79.42
2023-05-06T07:18:50.076Z,79.64
2023-05-06T07:21:16.551Z,79.50
2023-05-06T07:23:42.983Z,79.00
2023-05-06T07:26:09.493Z,78.35
2023-05-06T07:28:35.939Z,77.96
2023-05-06T07:31:02.404Z,77.72
2023-05-06T07:33:29.217Z,77.41
2023-05-06T07:35:55.761Z,76.90
2023-05-06T07:38:22.959Z,76.86
2023-05-06T07:40:50.098Z,76.17
2023-05-06T07:43:17.013Z,75.79
2023-05-06T07:45:43.544Z,75.21
2023-05-06T07:48:10.530Z,74.69
2023-05-06T07:50:37.029Z,74.17
2023-05-06T07:53:03.968Z,74.00
2023-05-06T07:55:30.470Z,74.24
2023-05-06T07:57:57.078Z,74.74
2023-05-06T08:00:23.512Z,75.33
2023-05-06T08:02:50.231Z,75.80
2023-05-06T08:05:17.417Z,76.05
2023-05-06T08:07:43.974Z,75.60
2023-05-06T08:10:11.048Z,74.47
2023-05-06T08:12:38.230Z,73.77
2023-05-06T08:15:05.235Z,72.94
2023-05-06T08:17:31.706Z,72.50
2023-05-06T08:19:58.075Z,72.15
2023-05-06T08:22:24.488Z,72.00
2023-05-06T08:24:51.005Z,72.08
2023-05-06T08:27:17.403Z,71.93
2023-05-06T08:29:43.808Z,72.02
2023-05-06T08:32:10.599Z,72.15
2023-05-06T08:34:37.128Z,71.69
2023-05-06T08:37:04.280Z,71.49
2023-05-06T08:39:31.478Z,71.18
2023-05-06T08:42:00.675Z,71.41
2023-05-06T08:44:27.467Z,71.62
2023-05-06T08:46:54.519Z,71.30
2023-05-06T08:49:21.289Z,70.44
2023-05-06T08:51:51.171Z,69.40
2023-05-06T08:54:19.259Z,68.77
2023-05-06T08:56:52.464Z,68.48
2023-05-06T08:59:27.103Z,68.01
2023-05-06T09:01:53.683Z,67.82
2023-05-06T09:04:20.260Z,68.10
2023-05-06T09:06:46.817Z,68.53
2023-05-06T09:09:14.855Z,69.17
2023-05-06T09:11:41.417Z,69.92
2023-05-06T09:14:11.958Z,70.20
2023-05-06T09:16:40.165Z,69.25
2023-05-06T09:19:06.864Z,69.14
2023-05-06T09:21:35.488Z,69.24
2023-05-06T09:24:03.082Z,68.77
2023-05-06T09:26:30.878Z,67.59
2023-05-06T09:28:58.461Z,67.07
2023-05-06T09:31:26.122Z,66.41
2023-05-06T09:33:54.337Z,66.23
2023-05-06T09:36:21.445Z,65.78
2023-05-06T09:38:47.933Z,66.09
2023-05-06T09:41:14.512Z,66.03
2023-05-06T09:43:44.964Z,65.87
2023-05-06T09:46:12.719Z,65.61
2023-05-06T09:48:40.698Z,64.87
2023-05-06T09:51:07.925Z,64.27
2023-05-06T09:53:37.047Z,63.76
2023-05-06T09:56:07.687Z,63.72
2023-05-06T09:58:35.336Z,63.97
2023-05-06T10:01:03.950Z,63.86
2023-05-06T10:03:31.457Z,63.92
2023-05-06T10:06:00.566Z,64.26
2023-05-06T10:08:27.148Z,64.34
2023-05-06T10:10:54.591Z,64.44
2023-05-06T10:13:22.137Z,63.83
2023-05-06T10:15:50.231Z,63.00
2023-05-06T10:18:18.633Z,61.88
2023-05-06T10:20:46.383Z,61.10
2023-05-06T10:23:21.779Z,60.57
2023-05-06T10:25:52.117Z,60.09
2023-05-06T10:28:25.243Z,59.48
2023-05-06T10:30:58.771Z,58.83
2023-05-06T10:33:27.584Z,58.73
2023-05-06T10:36:07.450Z,58.98
2023-05-06T10:38:37.303Z,58.62
2023-05-06T10:41:04.187Z,57.99
2023-05-06T10:43:31.805Z,57.73
2023-05-06T10:46:02.935Z,57.43
2023-05-06T10:48:30.782Z,57.07
2023-05-06T10:51:15.771Z,56.31
2023-05-06T10:54:06.827Z,55.93
2023-05-06T10:56:35.606Z,55.41
2023-05-06T10:59:13.864Z,55.68
2023-05-06T11:01:42.557Z,55.42
2023-05-06T11:04:18.927Z,55.60
2023-05-06T11:06:49.870Z,55.90
2023-05-06T11:09:19.919Z,55.82
2023-05-06T11:12:05.993Z,54.98
2023-05-06T11:14:37.589Z,55.72
2023-05-06T11:17:30.203Z,56.54
2023-05-06T11:20:19.544Z,57.22
2023-05-06T11:22:46.054Z,57.84
2023-05-06T11:25:12.777Z,57.91
2023-05-06T11:27:39.807Z,56.45
2023-05-06T11:30:07.026Z,55.34
2023-05-06T11:35:02.723Z,53.50
2023-05-06T11:37:29.781Z,52.59
2023-05-06T11:39:56.437Z,52.92
2023-05-06T11:42:27.659Z,52.76
2023-05-06T11:44:55.578Z,51.97
2023-05-06T11:47:23.481Z,52.23
2023-05-06T11:49:56.446Z,52.57
2023-05-06T11:52:23.020Z,52.00
2023-05-06T11:54:52.264Z,51.75
2023-05-06T11:57:21.308Z,51.72
2023-05-06T11:59:54.288Z,51.69
2023-05-06T12:02:21.824Z,51.45
2023-05-06T12:04:50.198Z,51.07
2023-05-06T12:07:17.244Z,50.46
2023-05-06T12:09:47.970Z,50.66
2023-05-06T12:12:19.975Z,50.84
2023-05-06T12:14:47.339Z,49.93
2023-05-06T12:17:14.807Z,49.93
2023-05-06T12:19:41.575Z,50.17
2023-05-06T12:22:19.322Z,50.13
2023-05-06T12:24:47.235Z,49.89
2023-05-06T12:27:14.192Z,49.23
2023-05-06T12:29:40.787Z,49.40
2023-05-06T12:32:11.659Z,49.40
2023-05-06T12:34:39.685Z,49.26
2023-05-06T12:37:07.132Z,49.51
2023-05-06T12:39:38.427Z,49.72
2023-05-06T12:42:06.326Z,49.91
2023-05-06T12:44:37.863Z,49.10
2023-05-06T12:47:09.622Z,48.38
2023-05-06T12:49:55.278Z,48.82
2023-05-06T12:52:23.825Z,49.05
2023-05-06T12:54:52.842Z,49.37
2023-05-06T12:57:19.736Z,48.96
2023-05-06T12:59:46.792Z,49.02
2023-05-06T13:02:14.232Z,48.74
2023-05-06T13:04:40.937Z,48.64
2023-05-06T13:07:07.703Z,48.76
2023-05-06T13:09:34.277Z,48.63
2023-05-06T13:12:02.383Z,48.40
2023-05-06T13:14:28.939Z,48.56
2023-05-06T13:16:56.054Z,48.71
2023-05-06T13:19:32.156Z,48.44
2023-05-06T13:22:00.442Z,48.25
2023-05-06T13:24:27.129Z,48.02
2023-05-06T13:26:53.727Z,47.71
2023-05-06T13:29:20.350Z,47.58
2023-05-06T13:31:46.775Z,47.47
2023-05-06T13:34:13.296Z,47.11
2023-05-06T13:36:39.884Z,47.16
2023-05-06T13:39:06.481Z,46.64
2023-05-06T13:41:33.061Z,46.04
2023-05-06T13:43:59.552Z,45.98
2023-05-06T13:46:27.253Z,45.77
2023-05-06T13:48:53.798Z,45.48
2023-05-06T13:51:23.016Z,45.73
2023-05-06T13:53:51.819Z,45.85
2023-05-06T13:56:18.432Z,46.29
2023-05-06T13:58:45.004Z,46.40
2023-05-06T14:01:11.639Z,45.98
2023-05-06T14:03:38.256Z,45.73
2023-05-06T14:06:05.020Z,46.04
2023-05-06T14:08:32.728Z,45.81
2023-05-06T14:10:59.220Z,45.59
2023-05-06T14:13:26.077Z,45.10
2023-05-06T14:15:52.689Z,44.72
2023-05-06T14:18:19.275Z,44.79
2023-05-06T14:20:45.719Z,44.84
2023-05-06T14:23:12.162Z,44.54
2023-05-06T14:25:38.720Z,44.61
2023-05-06T14:28:05.257Z,44.35
2023-05-06T14:30:34.084Z,44.28
2023-05-06T14:33:00.652Z,44.13
2023-05-06T14:35:27.230Z,43.95
2023-05-06T14:37:53.715Z,44.08
2023-05-06T14:40:20.395Z,43.91
2023-05-06T14:42:46.896Z,43.59
2023-05-06T14:45:13.773Z,43.89
2023-05-06T14:47:40.710Z,43.55
2023-05-06T14:50:11.706Z,43.80
2023-05-06T14:52:41.639Z,43.69
2023-05-06T14:55:10.132Z,43.84
2023-05-06T14:57:36.975Z,43.51
2023-05-06T15:00:05.162Z,43.28
2023-05-06T15:02:31.668Z,43.02
2023-05-06T15:04:58.317Z,43.36
2023-05-06T15:07:24.885Z,43.60
2023-05-06T15:09:52.250Z,43.33
2023-05-06T15:12:18.899Z,43.09
2023-05-06T15:14:45.525Z,42.88
2023-05-06T15:17:13.454Z,42.86
2023-05-06T15:19:39.939Z,42.37
2023-05-06T15:22:06.813Z,42.39
2023-05-06T15:24:33.281Z,42.21
2023-05-06T15:26:59.812Z,42.03
2023-05-06T15:29:26.357Z,42.17
2023-05-06T15:31:53.040Z,42.38
2023-05-06T15:34:20.783Z,42.35
2023-05-06T15:36:52.708Z,42.30
2023-05-06T15:39:19.617Z,41.72
2023-05-06T15:41:47.169Z,41.89
2023-05-06T15:44:16.430Z,41.91
2023-05-06T15:46:43.600Z,41.87
2023-05-06T15:49:39.715Z,42.02
2023-05-06T15:51:59.066Z,41.46
2023-05-06T15:54:27.390Z,41.35
2023-05-06T15:56:53.936Z,41.36
2023-05-06T15:59:20.650Z,41.12
2023-05-06T16:04:17.202Z,41.71
2023-05-06T16:06:43.920Z,41.89
2023-05-06T16:09:10.495Z,42.37
2023-05-06T16:11:37.113Z,42.33
2023-05-06T16:14:04.099Z,42.29
2023-05-06T16:16:30.703Z,42.19
2023-05-06T16:18:57.279Z,42.25
2023-05-06T16:21:24.102Z,42.20
2023-05-06T16:23:50.887Z,42.48
2023-05-06T16:26:17.746Z,42.47
2023-05-06T16:28:44.336Z,42.64
2023-05-06T16:31:11.012Z,42.39
2023-05-06T16:33:37.703Z,42.10
2023-05-06T16:36:04.459Z,42.22
2023-05-06T16:38:31.010Z,42.15
2023-05-06T16:40:57.478Z,42.00
2023-05-06T16:43:24.046Z,41.79
2023-05-06T16:45:50.635Z,41.98
2023-05-06T16:48:17.896Z,42.08
2023-05-06T16:50:44.738Z,42.09
2023-05-06T16:53:11.256Z,42.04
2023-05-06T16:55:37.827Z,42.22
2023-05-06T16:58:04.605Z,42.31
2023-05-06T17:00:32.407Z,42.39
2023-05-06T17:02:59.224Z,42.79
2023-05-06T17:05:28.013Z,42.57
2023-05-06T17:07:54.580Z,42.77
2023-05-06T17:10:22.089Z,42.82
2023-05-06T17:12:48.781Z,42.89
2023-05-06T17:15:15.944Z,43.20
2023-05-06T17:17:42.522Z,43.12
2023-05-06T17:20:11.379Z,43.34
2023-05-06T17:22:38.229Z,43.45
2023-05-06T17:25:05.169Z,43.54
2023-05-06T17:27:31.735Z,43.91
2023-05-06T17:30:00.793Z,44.15
2023-05-06T17:32:27.496Z,44.27
2023-05-06T17:34:54.060Z,44.51
2023-05-06T17:37:20.678Z,44.74
2023-05-06T17:39:47.304Z,45.01
2023-05-06T17:42:13.887Z,45.08
2023-05-06T17:44:42.799Z,45.32
2023-05-06T17:49:52.373Z,45.45
2023-05-06T17:52:19.063Z,45.64
2023-05-06T17:54:46.076Z,45.79
2023-05-06T17:57:12.768Z,45.88
2023-05-06T17:59:39.473Z,46.03
2023-05-06T18:02:08.543Z,46.21
2023-05-06T18:04:35.330Z,46.37
2023-05-06T18:07:01.966Z,46.72
2023-05-06T18:09:28.532Z,46.84
2023-05-06T18:11:55.116Z,46.86
2023-05-06T18:14:21.762Z,47.21
2023-05-06T18:16:48.267Z,47.60
2023-05-06T18:19:16.089Z,47.84
2023-05-06T18:21:42.648Z,47.97
2023-05-06T18:24:15.830Z,48.36
2023-05-06T18:26:45.273Z,48.44
2023-05-06T18:29:12.768Z,48.81
2023-05-06T18:31:39.495Z,48.86
2023-05-06T18:34:06.205Z,49.13
2023-05-06T18:36:33.677Z,49.37
2023-05-06T18:39:01.330Z,49.72
2023-05-06T18:41:27.958Z,49.96
2023-05-06T18:43:54.522Z,50.19
2023-05-06T18:46:21.527Z,50.49
2023-05-06T18:48:48.206Z,50.60
2023-05-06T18:51:18.061Z,50.84
2023-05-06T18:53:44.980Z,51.14
2023-05-06T18:56:11.978Z,51.24
2023-05-06T18:58:39.869Z,51.41
2023-05-06T19:01:08.037Z,51.65
2023-05-06T19:03:35.393Z,52.02
2023-05-06T19:06:03.737Z,52.18
2023-05-06T19:08:31.190Z,52.43
2023-05-06T19:11:01.804Z,52.70
2023-05-06T19:13:28.688Z,52.64
2023-05-06T19:15:56.007Z,53.12
2023-05-06T19:18:22.660Z,53.32
2023-05-06T19:20:49.162Z,53.47
2023-05-06T19:23:15.701Z,53.79
2023-05-06T19:25:42.185Z,53.73
2023-05-06T19:28:09.579Z,53.90
2023-05-06T19:30:36.662Z,54.26
2023-05-06T19:33:03.952Z,54.25
2023-05-06T19:35:30.672Z,54.39
2023-05-06T19:37:57.854Z,54.56
2023-05-06T19:40:24.660Z,54.75
2023-05-06T19:42:54.485Z,54.79
2023-05-06T19:45:21.384Z,54.88
2023-05-06T19:47:49.007Z,55.05
2023-05-06T19:50:15.835Z,55.20
2023-05-06T19:52:42.371Z,55.42
2023-05-06T19:55:11.425Z,55.46
2023-05-06T19:57:38.292Z,55.83
2023-05-06T20:00:10.119Z,55.72
2023-05-06T20:02:38.017Z,55.92
2023-05-06T20:05:06.439Z,56.29
2023-05-06T20:07:33.611Z,56.28
2023-05-06T20:10:00.709Z,56.30
2023-05-06T20:12:27.482Z,56.50
2023-05-06T20:14:55.041Z,56.58
2023-05-06T20:17:22.306Z,56.62
2023-05-06T20:19:49.742Z,56.96
2023-05-06T20:22:16.553Z,57.21
2023-05-06T20:24:43.868Z,57.23
2023-05-06T20:27:10.720Z,57.37
2023-05-06T20:29:37.405Z,57.60
2023-05-06T20:32:04.095Z,57.81
2023-05-06T20:34:30.681Z,57.90
2023-05-06T20:36:57.136Z,58.13
2023-05-06T20:39:25.310Z,58.01
2023-05-06T20:41:51.798Z,58.16
2023-05-06T20:44:18.339Z,58.56
2023-05-06T20:46:44.966Z,58.40
2023-05-06T20:49:11.847Z,58.58
2023-05-06T20:51:38.410Z,58.65
2023-05-06T20:54:05.057Z,58.78
2023-05-06T20:56:32.263Z,58.75
2023-05-06T20:58:58.857Z,58.72
2023-05-06T21:01:27.408Z,58.91
2023-05-06T21:03:54.062Z,59.30
2023-05-06T21:06:20.661Z,59.44
2023-05-06T21:08:47.181Z,59.55
2023-05-06T21:11:13.999Z,59.64
2023-05-06T21:13:41.563Z,59.86
2023-05-06T21:16:08.144Z,59.97
2023-05-06T21:18:34.865Z,60.00
2023-05-06T21:21:01.575Z,60.54
2023-05-06T21:23:28.102Z,60.46
2023-05-06T21:25:54.576Z,60.55
2023-05-06T21:28:21.021Z,60.73
2023-05-06T21:30:47.499Z,61.02
2023-05-06T21:33:14.042Z,61.46
2023-05-06T21:35:40.442Z,61.43
2023-05-06T21:38:06.919Z,61.65
2023-05-06T21:40:33.451Z,61.81
2023-05-06T21:42:59.988Z,61.86
2023-05-06T21:45:26.701Z,62.18
2023-05-06T21:47:53.248Z,62.33
2023-05-06T21:50:19.872Z,62.38
2023-05-06T21:52:46.311Z,62.54
2023-05-06T21:55:12.912Z,62.75
2023-05-06T21:57:39.736Z,62.85
2023-05-06T22:00:15.647Z,63.01
2023-05-06T22:02:42.296Z,63.42
2023-05-06T22:05:09.439Z,63.35
2023-05-06T22:07:36.158Z,63.61
2023-05-06T22:10:03.636Z,63.73
2023-05-06T22:12:31.525Z,63.60
2023-05-06T22:14:58.039Z,63.86
2023-05-06T22:17:24.697Z,64.03
2023-05-06T22:19:51.628Z,64.56
2023-05-06T22:22:18.762Z,64.34
2023-05-06T22:24:45.401Z,64.65
2023-05-06T22:27:11.812Z,64.75
2023-05-06T22:29:38.289Z,64.80
2023-05-06T22:32:05.438Z,65.04
2023-05-06T22:34:32.113Z,65.20
2023-05-06T22:37:00.417Z,65.31
2023-05-06T22:39:27.580Z,65.45
2023-05-06T22:41:54.085Z,65.39
2023-05-06T22:44:21.108Z,65.75
2023-05-06T22:46:47.831Z,65.81
2023-05-06T22:49:15.988Z,65.84
2023-05-06T22:51:42.772Z,65.98
2023-05-06T22:54:09.316Z,66.15
2023-05-06T22:56:36.100Z,66.17
2023-05-06T22:59:02.861Z,66.43
2023-05-06T23:01:32.799Z,66.65
2023-05-06T23:03:59.573Z,66.72
2023-05-06T23:06:27.721Z,66.81
2023-05-06T23:08:54.357Z,66.86
2023-05-06T23:11:20.930Z,66.73
2023-05-06T23:13:47.698Z,66.94
2023-05-06T23:16:14.777Z,67.26
2023-05-06T23:18:41.656Z,67.33
2023-05-06T23:21:09.265Z,67.25
2023-05-06T23:23:35.831Z,67.83
2023-05-06T23:26:02.399Z,67.74
2023-05-06T23:28:29.873Z,67.92
2023-05-06T23:30:56.491Z,67.87
2023-05-06T23:33:23.226Z,67.90
2023-05-06T23:35:49.842Z,68.29
2023-05-06T23:38:16.370Z,68.35
2023-05-06T23:40:42.858Z,68.61
2023-05-06T23:43:11.243Z,68.64
2023-05-06T23:45:38.061Z,68.68
2023-05-06T23:48:05.106Z,68.28
2023-05-06T23:50:31.689Z,68.69
2023-05-06T23:52:58.230Z,68.58
2023-05-06T23:55:26.426Z,68.73
2023-05-06T23:57:53.069Z,68.73
